sensor_id;sensor_type;location;lat;lon;timestamp;P1;durP1;ratioP1;P2;durP2;ratioP2
64459;SDS011;50828;53.756;21.140;2022-11-20T00:00:51;51.80;;;18.90;;
64459;SDS011;50828;53.756;21.140;2022-11-20T00:06:00;48.60;;;19.40;;
64459;SDS011;50828;53.756;21.140;2022-11-20T00:11:09;58.90;;;18.80;;
64459;SDS011;50828;53.756;21.140;2022-11-20T00:16:19;50.00;;;19.30;;
64459;SDS011;50828;53.756;21.140;2022-11-20T00:21:28;46.60;;;17.50;;
64459;SDS011;50828;53.756;21.140;2022-11-20T00:26:36;49.00;;;18.30;;
64459;SDS011;50828;53.756;21.140;2022-11-20T00:31:44;48.50;;;18.80;;
64459;SDS011;50828;53.756;21.140;2022-11-20T00:36:51;53.00;;;18.60;;
64459;SDS011;50828;53.756;21.140;2022-11-20T00:41:58;46.60;;;19.10;;
64459;SDS011;50828;53.756;21.140;2022-11-20T00:47:06;50.10;;;19.90;;
64459;SDS011;50828;53.756;21.140;2022-11-20T00:52:14;51.60;;;18.80;;
64459;SDS011;50828;53.756;21.140;2022-11-20T00:57:21;48.60;;;18.10;;
64459;SDS011;50828;53.756;21.140;2022-11-20T01:02:28;49.60;;;18.40;;
64459;SDS011;50828;53.756;21.140;2022-11-20T01:07:36;45.00;;;18.10;;
64459;SDS011;50828;53.756;21.140;2022-11-20T01:12:43;50.20;;;19.60;;
64459;SDS011;50828;53.756;21.140;2022-11-20T01:18:11;49.70;;;18.60;;
64459;SDS011;50828;53.756;21.140;2022-11-20T01:23:19;50.60;;;17.70;;
64459;SDS011;50828;53.756;21.140;2022-11-20T01:28:26;51.30;;;17.50;;
64459;SDS011;50828;53.756;21.140;2022-11-20T01:33:35;43.20;;;17.20;;
64459;SDS011;50828;53.756;21.140;2022-11-20T01:38:42;49.30;;;19.60;;
64459;SDS011;50828;53.756;21.140;2022-11-20T01:43:50;43.30;;;18.00;;
64459;SDS011;50828;53.756;21.140;2022-11-20T01:48:58;47.00;;;18.00;;
64459;SDS011;50828;53.756;21.140;2022-11-20T01:54:09;43.90;;;18.10;;
64459;SDS011;50828;53.756;21.140;2022-11-20T01:59:22;50.80;;;19.70;;
64459;SDS011;50828;53.756;21.140;2022-11-20T02:04:32;56.30;;;21.20;;
64459;SDS011;50828;53.756;21.140;2022-11-20T02:09:40;43.70;;;17.80;;
64459;SDS011;50828;53.756;21.140;2022-11-20T02:14:47;50.90;;;20.80;;
64459;SDS011;50828;53.756;21.140;2022-11-20T02:19:55;54.70;;;19.20;;
64459;SDS011;50828;53.756;21.140;2022-11-20T02:25:03;44.40;;;18.30;;
64459;SDS011;50828;53.756;21.140;2022-11-20T02:30:12;42.90;;;18.30;;
64459;SDS011;50828;53.756;21.140;2022-11-20T02:35:40;48.30;;;19.60;;
64459;SDS011;50828;53.756;21.140;2022-11-20T02:40:50;49.70;;;20.20;;
64459;SDS011;50828;53.756;21.140;2022-11-20T02:45:58;50.70;;;20.60;;
64459;SDS011;50828;53.756;21.140;2022-11-20T02:51:05;45.10;;;17.00;;
64459;SDS011;50828;53.756;21.140;2022-11-20T02:56:13;46.90;;;19.20;;
64459;SDS011;50828;53.756;21.140;2022-11-20T03:01:20;43.70;;;18.20;;
64459;SDS011;50828;53.756;21.140;2022-11-20T03:06:28;49.20;;;19.90;;
64459;SDS011;50828;53.756;21.140;2022-11-20T03:11:35;49.30;;;18.60;;
64459;SDS011;50828;53.756;21.140;2022-11-20T03:16:43;55.00;;;19.40;;
64459;SDS011;50828;53.756;21.140;2022-11-20T03:21:50;53.50;;;21.50;;
64459;SDS011;50828;53.756;21.140;2022-11-20T03:26:57;45.00;;;18.40;;
64459;SDS011;50828;53.756;21.140;2022-11-20T03:32:05;46.10;;;18.40;;
64459;SDS011;50828;53.756;21.140;2022-11-20T03:37:13;53.40;;;20.10;;
64459;SDS011;50828;53.756;21.140;2022-11-20T03:42:20;46.40;;;18.70;;
64459;SDS011;50828;53.756;21.140;2022-11-20T03:47:47;49.70;;;18.90;;
64459;SDS011;50828;53.756;21.140;2022-11-20T03:52:55;51.40;;;18.80;;
64459;SDS011;50828;53.756;21.140;2022-11-20T03:58:03;48.00;;;19.50;;
64459;SDS011;50828;53.756;21.140;2022-11-20T04:03:10;53.60;;;19.60;;
64459;SDS011;50828;53.756;21.140;2022-11-20T04:08:18;49.40;;;18.90;;
64459;SDS011;50828;53.756;21.140;2022-11-20T04:13:25;47.10;;;18.40;;
64459;SDS011;50828;53.756;21.140;2022-11-20T04:18:33;48.80;;;19.20;;
64459;SDS011;50828;53.756;21.140;2022-11-20T04:23:40;58.10;;;21.30;;
64459;SDS011;50828;53.756;21.140;2022-11-20T04:28:48;47.60;;;19.70;;
64459;SDS011;50828;53.756;21.140;2022-11-20T04:33:58;48.40;;;19.70;;
64459;SDS011;50828;53.756;21.140;2022-11-20T04:39:06;49.70;;;20.70;;
64459;SDS011;50828;53.756;21.140;2022-11-20T04:44:17;52.50;;;20.50;;
64459;SDS011;50828;53.756;21.140;2022-11-20T04:49:25;51.20;;;20.30;;
64459;SDS011;50828;53.756;21.140;2022-11-20T04:54:32;57.00;;;21.50;;
64459;SDS011;50828;53.756;21.140;2022-11-20T04:59:39;60.10;;;22.40;;
64459;SDS011;50828;53.756;21.140;2022-11-20T05:04:47;57.00;;;22.20;;
64459;SDS011;50828;53.756;21.140;2022-11-20T05:09:55;61.80;;;23.60;;
64459;SDS011;50828;53.756;21.140;2022-11-20T05:15:03;58.90;;;23.10;;
64459;SDS011;50828;53.756;21.140;2022-11-20T05:20:12;60.50;;;22.90;;
64459;SDS011;50828;53.756;21.140;2022-11-20T05:25:19;65.10;;;24.50;;
64459;SDS011;50828;53.756;21.140;2022-11-20T05:30:27;72.50;;;26.00;;
64459;SDS011;50828;53.756;21.140;2022-11-20T05:35:35;70.20;;;24.40;;
64459;SDS011;50828;53.756;21.140;2022-11-20T05:40:42;63.00;;;25.40;;
64459;SDS011;50828;53.756;21.140;2022-11-20T05:45:53;66.40;;;25.90;;
64459;SDS011;50828;53.756;21.140;2022-11-20T05:51:01;71.50;;;24.20;;
64459;SDS011;50828;53.756;21.140;2022-11-20T05:56:11;69.60;;;24.30;;
64459;SDS011;50828;53.756;21.140;2022-11-20T06:01:20;69.30;;;24.20;;
64459;SDS011;50828;53.756;21.140;2022-11-20T06:06:29;72.80;;;26.30;;
64459;SDS011;50828;53.756;21.140;2022-11-20T06:11:37;69.70;;;26.50;;
64459;SDS011;50828;53.756;21.140;2022-11-20T06:16:44;70.70;;;24.90;;
64459;SDS011;50828;53.756;21.140;2022-11-20T06:21:52;69.50;;;25.10;;
64459;SDS011;50828;53.756;21.140;2022-11-20T06:26:59;66.30;;;24.00;;
64459;SDS011;50828;53.756;21.140;2022-11-20T06:32:06;75.00;;;26.50;;
64459;SDS011;50828;53.756;21.140;2022-11-20T06:37:14;71.90;;;26.10;;
64459;SDS011;50828;53.756;21.140;2022-11-20T06:42:21;76.00;;;27.90;;
64459;SDS011;50828;53.756;21.140;2022-11-20T06:47:29;78.40;;;25.90;;
64459;SDS011;50828;53.756;21.140;2022-11-20T06:52:37;72.10;;;25.40;;
64459;SDS011;50828;53.756;21.140;2022-11-20T06:57:46;77.20;;;24.80;;
64459;SDS011;50828;53.756;21.140;2022-11-20T07:08:07;68.50;;;24.50;;
64459;SDS011;50828;53.756;21.140;2022-11-20T07:13:15;67.10;;;25.90;;
64459;SDS011;50828;53.756;21.140;2022-11-20T07:18:22;76.70;;;26.60;;
64459;SDS011;50828;53.756;21.140;2022-11-20T07:23:29;70.10;;;25.50;;
64459;SDS011;50828;53.756;21.140;2022-11-20T07:28:38;67.20;;;24.50;;
64459;SDS011;50828;53.756;21.140;2022-11-20T07:33:45;76.90;;;28.50;;
64459;SDS011;50828;53.756;21.140;2022-11-20T07:38:53;65.50;;;25.80;;
64459;SDS011;50828;53.756;21.140;2022-11-20T07:44:00;64.50;;;25.80;;
64459;SDS011;50828;53.756;21.140;2022-11-20T07:49:08;72.60;;;26.40;;
64459;SDS011;50828;53.756;21.140;2022-11-20T07:54:15;77.20;;;26.00;;
64459;SDS011;50828;53.756;21.140;2022-11-20T07:59:23;75.20;;;27.70;;
64459;SDS011;50828;53.756;21.140;2022-11-20T08:04:30;68.40;;;25.80;;
64459;SDS011;50828;53.756;21.140;2022-11-20T08:09:38;66.90;;;25.00;;
64459;SDS011;50828;53.756;21.140;2022-11-20T08:14:45;64.90;;;25.50;;
64459;SDS011;50828;53.756;21.140;2022-11-20T08:19:53;65.10;;;23.80;;
64459;SDS011;50828;53.756;21.140;2022-11-20T08:25:00;67.50;;;25.70;;
64459;SDS011;50828;53.756;21.140;2022-11-20T08:30:09;64.10;;;24.20;;
64459;SDS011;50828;53.756;21.140;2022-11-20T08:35:18;62.30;;;24.00;;
64459;SDS011;50828;53.756;21.140;2022-11-20T08:40:26;57.60;;;22.00;;
64459;SDS011;50828;53.756;21.140;2022-11-20T08:45:34;55.90;;;23.20;;
64459;SDS011;50828;53.756;21.140;2022-11-20T08:50:41;60.10;;;22.70;;
64459;SDS011;50828;53.756;21.140;2022-11-20T08:55:49;56.40;;;21.70;;
64459;SDS011;50828;53.756;21.140;2022-11-20T09:00:56;56.90;;;22.40;;
64459;SDS011;50828;53.756;21.140;2022-11-20T09:06:05;60.20;;;22.70;;
64459;SDS011;50828;53.756;21.140;2022-11-20T09:11:12;55.40;;;20.40;;
64459;SDS011;50828;53.756;21.140;2022-11-20T09:16:20;48.20;;;18.40;;
64459;SDS011;50828;53.756;21.140;2022-11-20T09:21:27;48.80;;;21.20;;
64459;SDS011;50828;53.756;21.140;2022-11-20T09:26:34;41.30;;;17.40;;
64459;SDS011;50828;53.756;21.140;2022-11-20T09:31:42;41.40;;;17.00;;
64459;SDS011;50828;53.756;21.140;2022-11-20T09:36:50;43.50;;;16.80;;
64459;SDS011;50828;53.756;21.140;2022-11-20T09:42:04;39.30;;;17.40;;
64459;SDS011;50828;53.756;21.140;2022-11-20T09:47:23;39.20;;;15.80;;
64459;SDS011;50828;53.756;21.140;2022-11-20T09:52:40;35.20;;;16.20;;
64459;SDS011;50828;53.756;21.140;2022-11-20T09:57:58;39.30;;;17.00;;
64459;SDS011;50828;53.756;21.140;2022-11-20T10:03:11;38.40;;;17.50;;
64459;SDS011;50828;53.756;21.140;2022-11-20T10:08:27;36.90;;;17.90;;
64459;SDS011;50828;53.756;21.140;2022-11-20T10:13:44;36.40;;;16.50;;
64459;SDS011;50828;53.756;21.140;2022-11-20T10:19:06;40.50;;;17.70;;
64459;SDS011;50828;53.756;21.140;2022-11-20T10:24:33;36.50;;;17.50;;
64459;SDS011;50828;53.756;21.140;2022-11-20T10:29:57;34.50;;;16.10;;
64459;SDS011;50828;53.756;21.140;2022-11-20T10:35:13;32.90;;;16.40;;
64459;SDS011;50828;53.756;21.140;2022-11-20T10:40:27;34.90;;;16.40;;
64459;SDS011;50828;53.756;21.140;2022-11-20T10:45:48;32.30;;;16.90;;
64459;SDS011;50828;53.756;21.140;2022-11-20T10:56:36;33.70;;;17.10;;
64459;SDS011;50828;53.756;21.140;2022-11-20T11:01:52;31.70;;;16.40;;
64459;SDS011;50828;53.756;21.140;2022-11-20T11:07:04;36.20;;;16.30;;
64459;SDS011;50828;53.756;21.140;2022-11-20T11:12:17;32.90;;;17.00;;
64459;SDS011;50828;53.756;21.140;2022-11-20T11:17:27;32.50;;;15.30;;
64459;SDS011;50828;53.756;21.140;2022-11-20T11:22:43;33.00;;;16.40;;
64459;SDS011;50828;53.756;21.140;2022-11-20T11:27:52;30.30;;;15.80;;
64459;SDS011;50828;53.756;21.140;2022-11-20T11:33:04;31.50;;;16.40;;
64459;SDS011;50828;53.756;21.140;2022-11-20T11:38:16;31.70;;;16.30;;
64459;SDS011;50828;53.756;21.140;2022-11-20T11:43:28;31.70;;;15.40;;
64459;SDS011;50828;53.756;21.140;2022-11-20T11:48:56;28.00;;;13.90;;
64459;SDS011;50828;53.756;21.140;2022-11-20T11:54:09;34.30;;;15.10;;
64459;SDS011;50828;53.756;21.140;2022-11-20T11:59:23;33.00;;;15.30;;
64459;SDS011;50828;53.756;21.140;2022-11-20T12:04:40;32.70;;;15.40;;
64459;SDS011;50828;53.756;21.140;2022-11-20T12:09:52;28.00;;;13.80;;
64459;SDS011;50828;53.756;21.140;2022-11-20T12:15:02;31.30;;;14.00;;
64459;SDS011;50828;53.756;21.140;2022-11-20T12:20:15;32.10;;;14.70;;
64459;SDS011;50828;53.756;21.140;2022-11-20T12:25:26;32.50;;;14.90;;
64459;SDS011;50828;53.756;21.140;2022-11-20T12:30:36;31.00;;;15.90;;
64459;SDS011;50828;53.756;21.140;2022-11-20T12:35:59;33.40;;;16.40;;
64459;SDS011;50828;53.756;21.140;2022-11-20T12:41:14;34.30;;;16.30;;
64459;SDS011;50828;53.756;21.140;2022-11-20T12:46:49;36.70;;;16.20;;
64459;SDS011;50828;53.756;21.140;2022-11-20T12:52:11;41.70;;;17.70;;
64459;SDS011;50828;53.756;21.140;2022-11-20T12:57:33;32.60;;;15.60;;
64459;SDS011;50828;53.756;21.140;2022-11-20T13:02:58;39.60;;;17.70;;
64459;SDS011;50828;53.756;21.140;2022-11-20T13:08:20;39.40;;;18.30;;
64459;SDS011;50828;53.756;21.140;2022-11-20T13:13:33;33.70;;;17.10;;
64459;SDS011;50828;53.756;21.140;2022-11-20T13:18:48;37.30;;;18.40;;
64459;SDS011;50828;53.756;21.140;2022-11-20T13:24:05;33.80;;;15.60;;
64459;SDS011;50828;53.756;21.140;2022-11-20T13:29:27;36.60;;;17.70;;
64459;SDS011;50828;53.756;21.140;2022-11-20T13:34:36;37.60;;;17.60;;
64459;SDS011;50828;53.756;21.140;2022-11-20T13:39:43;44.30;;;19.70;;
64459;SDS011;50828;53.756;21.140;2022-11-20T13:44:53;35.90;;;18.40;;
64459;SDS011;50828;53.756;21.140;2022-11-20T13:50:08;38.20;;;18.80;;
64459;SDS011;50828;53.756;21.140;2022-11-20T13:55:21;41.50;;;18.80;;
64459;SDS011;50828;53.756;21.140;2022-11-20T14:00:41;42.00;;;19.10;;
64459;SDS011;50828;53.756;21.140;2022-11-20T14:05:54;40.20;;;18.20;;
64459;SDS011;50828;53.756;21.140;2022-11-20T14:11:12;38.90;;;18.80;;
64459;SDS011;50828;53.756;21.140;2022-11-20T14:16:23;38.00;;;17.60;;
64459;SDS011;50828;53.756;21.140;2022-11-20T14:21:31;34.10;;;16.60;;
64459;SDS011;50828;53.756;21.140;2022-11-20T14:26:40;35.20;;;17.20;;
64459;SDS011;50828;53.756;21.140;2022-11-20T14:31:50;32.70;;;16.70;;
64459;SDS011;50828;53.756;21.140;2022-11-20T14:36:59;40.30;;;18.50;;
64459;SDS011;50828;53.756;21.140;2022-11-20T14:42:13;41.20;;;18.90;;
64459;SDS011;50828;53.756;21.140;2022-11-20T14:47:23;39.30;;;18.30;;
64459;SDS011;50828;53.756;21.140;2022-11-20T14:52:32;35.90;;;17.70;;
64459;SDS011;50828;53.756;21.140;2022-11-20T14:57:40;37.40;;;17.10;;
64459;SDS011;50828;53.756;21.140;2022-11-20T15:02:48;35.30;;;16.60;;
64459;SDS011;50828;53.756;21.140;2022-11-20T15:08:06;40.60;;;17.40;;
64459;SDS011;50828;53.756;21.140;2022-11-20T15:13:15;36.30;;;15.70;;
64459;SDS011;50828;53.756;21.140;2022-11-20T15:18:26;39.60;;;17.00;;
64459;SDS011;50828;53.756;21.140;2022-11-20T15:23:36;33.80;;;16.20;;
64459;SDS011;50828;53.756;21.140;2022-11-20T15:28:43;31.90;;;16.00;;
64459;SDS011;50828;53.756;21.140;2022-11-20T15:33:53;23.60;;;11.00;;
64459;SDS011;50828;53.756;21.140;2022-11-20T15:39:01;37.70;;;16.40;;
64459;SDS011;50828;53.756;21.140;2022-11-20T15:44:10;39.70;;;17.70;;
64459;SDS011;50828;53.756;21.140;2022-11-20T15:49:18;38.60;;;18.10;;
64459;SDS011;50828;53.756;21.140;2022-11-20T15:54:27;38.30;;;16.80;;
64459;SDS011;50828;53.756;21.140;2022-11-20T15:59:34;35.60;;;17.40;;
64459;SDS011;50828;53.756;21.140;2022-11-20T16:04:43;35.60;;;16.60;;
64459;SDS011;50828;53.756;21.140;2022-11-20T16:09:51;37.10;;;17.70;;
64459;SDS011;50828;53.756;21.140;2022-11-20T16:15:00;36.00;;;17.20;;
64459;SDS011;50828;53.756;21.140;2022-11-20T16:20:25;30.80;;;16.80;;
64459;SDS011;50828;53.756;21.140;2022-11-20T16:25:33;37.10;;;16.00;;
64459;SDS011;50828;53.756;21.140;2022-11-20T16:30:40;32.30;;;15.60;;
64459;SDS011;50828;53.756;21.140;2022-11-20T16:35:48;34.80;;;16.40;;
64459;SDS011;50828;53.756;21.140;2022-11-20T16:41:01;31.30;;;15.90;;
64459;SDS011;50828;53.756;21.140;2022-11-20T16:46:09;35.00;;;16.50;;
64459;SDS011;50828;53.756;21.140;2022-11-20T16:51:16;36.50;;;17.10;;
64459;SDS011;50828;53.756;21.140;2022-11-20T16:56:24;32.60;;;15.70;;
64459;SDS011;50828;53.756;21.140;2022-11-20T17:01:32;34.70;;;17.20;;
64459;SDS011;50828;53.756;21.140;2022-11-20T17:06:43;34.40;;;16.90;;
64459;SDS011;50828;53.756;21.140;2022-11-20T17:11:51;35.90;;;17.40;;
64459;SDS011;50828;53.756;21.140;2022-11-20T17:16:58;31.10;;;16.40;;
64459;SDS011;50828;53.756;21.140;2022-11-20T17:22:06;31.60;;;17.00;;
64459;SDS011;50828;53.756;21.140;2022-11-20T17:27:13;37.10;;;17.60;;
64459;SDS011;50828;53.756;21.140;2022-11-20T17:32:21;33.50;;;16.50;;
64459;SDS011;50828;53.756;21.140;2022-11-20T17:37:28;34.70;;;17.80;;
64459;SDS011;50828;53.756;21.140;2022-11-20T17:42:36;37.70;;;19.70;;
64459;SDS011;50828;53.756;21.140;2022-11-20T17:47:43;38.40;;;18.70;;
64459;SDS011;50828;53.756;21.140;2022-11-20T17:52:50;40.40;;;18.60;;
64459;SDS011;50828;53.756;21.140;2022-11-20T17:57:58;40.60;;;19.30;;
64459;SDS011;50828;53.756;21.140;2022-11-20T18:03:09;39.30;;;18.50;;
64459;SDS011;50828;53.756;21.140;2022-11-20T18:08:16;42.20;;;19.60;;
64459;SDS011;50828;53.756;21.140;2022-11-20T18:13:24;41.00;;;20.30;;
64459;SDS011;50828;53.756;21.140;2022-11-20T18:18:54;42.30;;;18.60;;
64459;SDS011;50828;53.756;21.140;2022-11-20T18:24:02;40.60;;;19.20;;
64459;SDS011;50828;53.756;21.140;2022-11-20T18:29:10;41.60;;;19.30;;
64459;SDS011;50828;53.756;21.140;2022-11-20T18:34:20;40.10;;;19.00;;
64459;SDS011;50828;53.756;21.140;2022-11-20T18:39:28;46.30;;;19.60;;
64459;SDS011;50828;53.756;21.140;2022-11-20T18:44:35;43.60;;;19.60;;
64459;SDS011;50828;53.756;21.140;2022-11-20T18:49:57;40.70;;;20.60;;
64459;SDS011;50828;53.756;21.140;2022-11-20T18:55:06;38.70;;;19.40;;
64459;SDS011;50828;53.756;21.140;2022-11-20T19:00:15;45.30;;;20.80;;
64459;SDS011;50828;53.756;21.140;2022-11-20T19:05:24;43.70;;;21.60;;
64459;SDS011;50828;53.756;21.140;2022-11-20T19:10:31;42.80;;;19.80;;
64459;SDS011;50828;53.756;21.140;2022-11-20T19:15:40;40.20;;;20.70;;
64459;SDS011;50828;53.756;21.140;2022-11-20T19:20:48;44.10;;;21.40;;
64459;SDS011;50828;53.756;21.140;2022-11-20T19:25:59;43.10;;;20.10;;
64459;SDS011;50828;53.756;21.140;2022-11-20T19:31:08;43.30;;;20.80;;
64459;SDS011;50828;53.756;21.140;2022-11-20T19:36:17;37.60;;;18.80;;
64459;SDS011;50828;53.756;21.140;2022-11-20T19:41:26;41.80;;;20.10;;
64459;SDS011;50828;53.756;21.140;2022-11-20T19:46:35;41.30;;;20.10;;
64459;SDS011;50828;53.756;21.140;2022-11-20T19:51:44;43.90;;;19.70;;
64459;SDS011;50828;53.756;21.140;2022-11-20T19:56:54;42.80;;;20.40;;
64459;SDS011;50828;53.756;21.140;2022-11-20T20:02:01;41.90;;;20.50;;
64459;SDS011;50828;53.756;21.140;2022-11-20T20:07:09;38.40;;;18.40;;
64459;SDS011;50828;53.756;21.140;2022-11-20T20:12:17;40.60;;;19.00;;
64459;SDS011;50828;53.756;21.140;2022-11-20T20:17:24;44.30;;;19.30;;
64459;SDS011;50828;53.756;21.140;2022-11-20T20:22:31;44.40;;;19.30;;
64459;SDS011;50828;53.756;21.140;2022-11-20T20:27:39;42.50;;;19.40;;
64459;SDS011;50828;53.756;21.140;2022-11-20T20:32:46;39.20;;;18.20;;
64459;SDS011;50828;53.756;21.140;2022-11-20T20:37:58;37.40;;;17.80;;
64459;SDS011;50828;53.756;21.140;2022-11-20T20:43:06;41.40;;;17.40;;
64459;SDS011;50828;53.756;21.140;2022-11-20T20:48:13;39.50;;;17.90;;
64459;SDS011;50828;53.756;21.140;2022-11-20T20:53:22;39.10;;;18.20;;
64459;SDS011;50828;53.756;21.140;2022-11-20T20:58:30;37.30;;;17.50;;
64459;SDS011;50828;53.756;21.140;2022-11-20T21:03:37;38.60;;;18.40;;
64459;SDS011;50828;53.756;21.140;2022-11-20T21:08:45;44.30;;;19.30;;
64459;SDS011;50828;53.756;21.140;2022-11-20T21:13:53;39.00;;;17.60;;
64459;SDS011;50828;53.756;21.140;2022-11-20T21:19:00;39.50;;;16.90;;
64459;SDS011;50828;53.756;21.140;2022-11-20T21:24:08;41.90;;;18.50;;
64459;SDS011;50828;53.756;21.140;2022-11-20T21:29:15;43.10;;;18.00;;
64459;SDS011;50828;53.756;21.140;2022-11-20T21:34:23;40.90;;;17.80;;
64459;SDS011;50828;53.756;21.140;2022-11-20T21:39:30;44.40;;;18.60;;
64459;SDS011;50828;53.756;21.140;2022-11-20T21:44:50;39.10;;;17.40;;
64459;SDS011;50828;53.756;21.140;2022-11-20T21:49:58;41.50;;;17.40;;
64459;SDS011;50828;53.756;21.140;2022-11-20T21:55:06;36.40;;;17.00;;
64459;SDS011;50828;53.756;21.140;2022-11-20T22:00:15;39.30;;;17.00;;
64459;SDS011;50828;53.756;21.140;2022-11-20T22:05:23;39.40;;;17.80;;
64459;SDS011;50828;53.756;21.140;2022-11-20T22:10:30;45.20;;;17.30;;
64459;SDS011;50828;53.756;21.140;2022-11-20T22:15:38;40.90;;;17.70;;
64459;SDS011;50828;53.756;21.140;2022-11-20T22:21:05;37.90;;;17.90;;
64459;SDS011;50828;53.756;21.140;2022-11-20T22:26:13;36.00;;;17.20;;
64459;SDS011;50828;53.756;21.140;2022-11-20T22:31:22;38.30;;;16.30;;
64459;SDS011;50828;53.756;21.140;2022-11-20T22:36:30;38.60;;;16.50;;
64459;SDS011;50828;53.756;21.140;2022-11-20T22:41:40;37.50;;;16.70;;
64459;SDS011;50828;53.756;21.140;2022-11-20T22:46:48;36.20;;;16.30;;
64459;SDS011;50828;53.756;21.140;2022-11-20T22:51:55;39.30;;;17.30;;
64459;SDS011;50828;53.756;21.140;2022-11-20T22:57:02;37.10;;;16.90;;
64459;SDS011;50828;53.756;21.140;2022-11-20T23:02:10;43.30;;;17.30;;
64459;SDS011;50828;53.756;21.140;2022-11-20T23:07:18;36.90;;;16.30;;
64459;SDS011;50828;53.756;21.140;2022-11-20T23:12:25;43.10;;;18.70;;
64459;SDS011;50828;53.756;21.140;2022-11-20T23:17:32;37.70;;;18.20;;
64459;SDS011;50828;53.756;21.140;2022-11-20T23:22:40;43.40;;;19.10;;
64459;SDS011;50828;53.756;21.140;2022-11-20T23:27:48;44.90;;;19.20;;
64459;SDS011;50828;53.756;21.140;2022-11-20T23:32:56;45.50;;;19.00;;
64459;SDS011;50828;53.756;21.140;2022-11-20T23:38:03;47.50;;;19.80;;
64459;SDS011;50828;53.756;21.140;2022-11-20T23:43:11;48.20;;;20.00;;
64459;SDS011;50828;53.756;21.140;2022-11-20T23:48:22;41.40;;;18.70;;
64459;SDS011;50828;53.756;21.140;2022-11-20T23:53:31;51.60;;;20.40;;
64459;SDS011;50828;53.756;21.140;2022-11-20T23:58:38;48.90;;;20.00;;
